createdAt,value
2023-09-04T00:00:37.463Z,2.75
2023-09-04T00:03:04.651Z,2.70
2023-09-04T00:05:37.682Z,2.50
2023-09-04T00:08:04.916Z,2.50
2023-09-04T00:10:31.793Z,2.85
2023-09-04T00:12:58.716Z,2.72
2023-09-04T00:15:25.587Z,2.80
2023-09-04T00:17:52.628Z,2.53
2023-09-04T00:20:19.621Z,2.63
2023-09-04T00:22:46.469Z,2.72
2023-09-04T00:25:13.410Z,2.85
2023-09-04T00:27:40.311Z,3.00
2023-09-04T00:30:08.268Z,2.42
2023-09-04T00:32:35.160Z,2.60
2023-09-04T00:35:02.001Z,2.97
2023-09-04T00:37:28.881Z,2.47
2023-09-04T00:39:56.163Z,2.47
2023-09-04T00:42:23.256Z,2.72
2023-09-04T00:44:53.294Z,3.03
2023-09-04T00:47:24.187Z,3.20
2023-09-04T00:49:53.548Z,3.05
2023-09-04T00:52:20.635Z,3.17
2023-09-04T00:54:48.679Z,3.03
2023-09-04T00:57:17.080Z,3.47
2023-09-04T00:59:46.702Z,3.10
2023-09-04T01:02:16.101Z,3.65
2023-09-04T01:04:43.014Z,3.70
2023-09-04T01:07:10.034Z,3.67
2023-09-04T01:09:37.517Z,3.47
2023-09-04T01:12:15.533Z,3.85
2023-09-04T01:14:46.591Z,3.00
2023-09-04T01:17:15.234Z,3.85
2023-09-04T01:19:42.715Z,3.42
2023-09-04T01:22:10.468Z,4.07
2023-09-04T01:24:37.606Z,3.45
2023-09-04T01:27:26.539Z,3.17
2023-09-04T01:30:18.790Z,3.97
2023-09-04T01:33:02.068Z,3.00
2023-09-04T01:35:32.427Z,3.17
2023-09-04T01:38:00.585Z,3.40
2023-09-04T01:40:27.523Z,3.20
2023-09-04T01:42:54.454Z,4.43
2023-09-04T01:45:21.393Z,4.03
2023-09-04T01:47:48.444Z,4.20
2023-09-04T01:50:15.565Z,3.63
2023-09-04T01:52:42.975Z,3.90
2023-09-04T01:55:09.895Z,3.88
2023-09-04T01:57:36.897Z,4.32
2023-09-04T02:00:05.174Z,3.55
2023-09-04T02:02:42.054Z,2.90
2023-09-04T02:05:09.215Z,3.50
2023-09-04T02:07:36.142Z,3.72
2023-09-04T02:10:04.320Z,3.53
2023-09-04T02:12:31.265Z,3.80
2023-09-04T02:14:58.356Z,3.20
2023-09-04T02:17:25.430Z,3.95
2023-09-04T02:19:52.902Z,4.03
2023-09-04T02:22:20.131Z,3.65
2023-09-04T02:24:48.443Z,3.63
2023-09-04T02:27:15.731Z,3.30
2023-09-04T02:29:42.838Z,3.40
2023-09-04T02:32:09.858Z,4.30
2023-09-04T02:34:37.061Z,3.53
2023-09-04T02:37:05.078Z,4.07
2023-09-04T02:39:32.015Z,3.35
2023-09-04T02:41:58.857Z,3.55
2023-09-04T02:44:25.783Z,3.42
2023-09-04T02:46:53.251Z,3.60
2023-09-04T02:49:20.540Z,3.60
2023-09-04T02:51:47.447Z,3.72
2023-09-04T02:54:14.309Z,3.70
2023-09-04T02:56:41.238Z,3.50
2023-09-04T02:59:08.111Z,3.30
2023-09-04T03:01:36.107Z,3.55
2023-09-04T03:04:03.303Z,4.05
2023-09-04T03:06:30.399Z,3.90
2023-09-04T03:08:57.639Z,4.20
2023-09-04T03:11:24.620Z,4.22
2023-09-04T03:13:51.549Z,3.58
2023-09-04T03:16:18.476Z,3.90
2023-09-04T03:18:45.676Z,3.58
2023-09-04T03:21:12.581Z,4.20
2023-09-04T03:23:39.530Z,3.85
2023-09-04T03:26:06.531Z,3.78
2023-09-04T03:28:34.569Z,4.10
2023-09-04T03:31:02.740Z,3.53
2023-09-04T03:33:29.740Z,3.90
2023-09-04T03:35:59.733Z,3.92
2023-09-04T03:38:28.574Z,4.05
2023-09-04T03:40:55.788Z,3.83
2023-09-04T03:43:22.700Z,3.38
2023-09-04T03:45:49.627Z,3.72
2023-09-04T03:48:16.642Z,3.78
2023-09-04T03:50:43.548Z,3.58
2023-09-04T03:53:10.459Z,3.80
2023-09-04T03:55:37.480Z,3.75
2023-09-04T03:58:04.694Z,3.72
2023-09-04T04:00:32.203Z,4.43
2023-09-04T04:03:00.687Z,4.32
2023-09-04T04:05:29.305Z,3.63
2023-09-04T04:07:56.431Z,4.25
2023-09-04T04:10:24.209Z,3.78
2023-09-04T04:12:54.483Z,4.30
2023-09-04T04:15:22.268Z,4.07
2023-09-04T04:17:49.214Z,4.22
2023-09-04T04:20:17.126Z,4.00
2023-09-04T04:22:44.075Z,4.47
2023-09-04T04:25:11.605Z,4.00
2023-09-04T04:27:39.899Z,4.20
2023-09-04T04:30:08.292Z,4.80
2023-09-04T04:32:35.438Z,3.83
2023-09-04T04:35:02.599Z,4.65
2023-09-04T04:37:29.505Z,4.03
2023-09-04T04:39:56.454Z,4.50
2023-09-04T04:42:26.572Z,3.75
2023-09-04T04:44:56.936Z,4.43
2023-09-04T04:47:24.682Z,3.80
2023-09-04T04:49:52.617Z,3.97
2023-09-04T04:52:19.507Z,4.57
2023-09-04T04:54:46.441Z,4.00
2023-09-04T04:57:13.384Z,4.40
2023-09-04T04:59:40.724Z,4.88
2023-09-04T05:02:07.688Z,4.22
2023-09-04T05:04:36.700Z,4.40
2023-09-04T05:07:05.324Z,5.13
2023-09-04T05:09:33.046Z,4.68
2023-09-04T05:12:00.878Z,4.68
2023-09-04T05:14:27.815Z,4.07
2023-09-04T05:16:55.811Z,4.78
2023-09-04T05:19:23.253Z,4.53
2023-09-04T05:21:56.257Z,4.80
2023-09-04T05:24:24.783Z,5.15
2023-09-04T05:26:52.269Z,5.00
2023-09-04T05:29:19.236Z,5.30
2023-09-04T05:31:46.189Z,4.53
2023-09-04T05:34:14.007Z,4.90
2023-09-04T05:36:40.953Z,5.38
2023-09-04T05:39:07.862Z,4.60
2023-09-04T05:41:34.748Z,4.53
2023-09-04T05:44:01.728Z,5.68
2023-09-04T05:46:29.230Z,4.68
2023-09-04T05:48:56.284Z,4.93
2023-09-04T05:51:23.300Z,5.85
2023-09-04T05:53:51.308Z,4.55
2023-09-04T05:56:21.498Z,5.43
2023-09-04T05:58:51.173Z,4.50
2023-09-04T06:01:20.683Z,5.50
2023-09-04T06:03:47.836Z,6.05
2023-09-04T06:06:15.877Z,6.95
2023-09-04T06:08:42.777Z,6.30
2023-09-04T06:11:09.820Z,6.93
2023-09-04T06:13:36.729Z,7.07
2023-09-04T06:16:04.738Z,6.47
2023-09-04T06:18:32.150Z,6.43
2023-09-04T06:20:59.190Z,6.90
2023-09-04T06:23:26.548Z,6.72
2023-09-04T06:25:53.888Z,6.18
2023-09-04T06:28:21.080Z,6.43
2023-09-04T06:30:48.772Z,7.28
2023-09-04T06:33:15.818Z,7.85
2023-09-04T06:35:42.731Z,7.03
2023-09-04T06:38:11.847Z,7.00
2023-09-04T06:40:41.078Z,6.65
2023-09-04T06:43:08.333Z,7.57
2023-09-04T06:45:37.343Z,7.25
2023-09-04T06:48:08.533Z,6.70
2023-09-04T06:50:35.577Z,7.43
2023-09-04T06:53:02.544Z,7.35
2023-09-04T06:55:29.881Z,6.75
2023-09-04T06:57:57.187Z,6.70
2023-09-04T07:00:24.320Z,6.85
2023-09-04T07:02:51.565Z,6.93
2023-09-04T07:05:18.681Z,7.45
2023-09-04T07:07:48.674Z,7.03
2023-09-04T07:10:15.848Z,8.43
2023-09-04T07:12:42.971Z,7.30
2023-09-04T07:15:10.560Z,7.45
2023-09-04T07:17:37.568Z,7.05
2023-09-04T07:20:05.575Z,7.03
2023-09-04T07:22:32.536Z,7.80
2023-09-04T07:24:59.434Z,7.88
2023-09-04T07:27:27.927Z,8.10
2023-09-04T07:29:55.305Z,8.07
2023-09-04T07:32:22.895Z,7.03
2023-09-04T07:34:49.856Z,6.45
2023-09-04T07:37:16.973Z,6.65
2023-09-04T07:39:43.936Z,7.32
2023-09-04T07:42:10.911Z,6.22
2023-09-04T07:44:37.773Z,6.50
2023-09-04T07:47:04.701Z,6.60
2023-09-04T07:49:31.720Z,6.32
2023-09-04T07:51:59.112Z,6.00
2023-09-04T07:54:26.072Z,6.25
2023-09-04T07:56:53.142Z,6.47
2023-09-04T07:59:20.092Z,6.00
2023-09-04T08:01:46.956Z,5.90
2023-09-04T08:04:15.298Z,5.65
2023-09-04T08:06:42.273Z,5.47
2023-09-04T08:09:09.480Z,5.03
2023-09-04T08:11:36.631Z,5.45
2023-09-04T08:14:03.711Z,5.07
2023-09-04T08:16:30.768Z,5.00
2023-09-04T08:18:57.762Z,4.68
2023-09-04T08:21:24.635Z,4.80
2023-09-04T08:23:52.059Z,4.53
2023-09-04T08:26:18.971Z,4.90
2023-09-04T08:28:45.942Z,4.30
2023-09-04T08:31:13.321Z,4.45
2023-09-04T08:33:40.397Z,3.90
2023-09-04T08:36:07.457Z,4.18
2023-09-04T08:38:34.436Z,3.97
2023-09-04T08:41:06.791Z,3.80
2023-09-04T08:43:33.857Z,3.45
2023-09-04T08:46:02.470Z,3.53
2023-09-04T08:48:32.517Z,3.28
2023-09-04T08:51:00.058Z,2.95
2023-09-04T08:53:27.758Z,3.28
2023-09-04T08:55:56.384Z,2.78
2023-09-04T08:58:23.643Z,3.40
2023-09-04T09:00:51.570Z,2.88
2023-09-04T09:03:19.185Z,2.75
2023-09-04T09:05:49.115Z,2.42
2023-09-04T09:08:20.209Z,2.53
2023-09-04T09:10:47.920Z,3.28
2023-09-04T09:13:18.032Z,2.80
2023-09-04T09:15:44.893Z,3.03
2023-09-04T09:18:11.885Z,2.65
2023-09-04T09:20:43.272Z,2.40
2023-09-04T09:23:10.307Z,2.17
2023-09-04T09:25:39.031Z,2.00
2023-09-04T09:28:07.830Z,2.20
2023-09-04T09:30:41.917Z,2.47
2023-09-04T09:33:13.880Z,2.10
2023-09-04T09:35:41.585Z,2.20
2023-09-04T09:38:10.060Z,2.20
2023-09-04T09:40:38.274Z,2.35
2023-09-04T09:43:05.346Z,2.03
2023-09-04T09:45:37.256Z,1.98
2023-09-04T09:48:09.233Z,2.33
2023-09-04T09:50:41.948Z,2.50
2023-09-04T09:53:08.958Z,2.10
2023-09-04T09:55:36.627Z,2.10
2023-09-04T09:58:05.311Z,2.30
2023-09-04T10:00:34.392Z,2.45
2023-09-04T10:03:02.452Z,2.10
2023-09-04T10:05:31.507Z,1.83
2023-09-04T10:08:03.473Z,2.33
2023-09-04T10:10:37.708Z,2.50
2023-09-04T10:13:23.519Z,2.22
2023-09-04T10:15:58.016Z,2.40
2023-09-04T10:21:00.846Z,1.90
2023-09-04T10:23:44.764Z,2.17
2023-09-04T10:26:28.018Z,2.50
2023-09-04T10:29:11.159Z,2.38
2023-09-04T10:31:40.859Z,2.40
2023-09-04T10:34:08.643Z,2.50
2023-09-04T10:36:38.073Z,2.30
2023-09-04T10:39:06.518Z,2.47
2023-09-04T10:41:36.117Z,2.28
2023-09-04T10:44:03.268Z,2.55
2023-09-04T10:46:30.413Z,2.80
2023-09-04T10:48:57.560Z,2.53
2023-09-04T10:51:35.820Z,2.40
2023-09-04T10:54:08.432Z,2.22
2023-09-04T10:57:02.108Z,3.13
2023-09-04T10:59:29.651Z,3.03
2023-09-04T11:01:56.606Z,2.30
2023-09-04T11:04:35.310Z,2.10
2023-09-04T11:07:20.142Z,2.13
2023-09-04T11:12:24.634Z,1.83
2023-09-04T11:14:56.691Z,1.95
2023-09-04T11:17:34.021Z,2.38
2023-09-04T11:20:01.008Z,2.00
2023-09-04T11:22:28.333Z,2.30
2023-09-04T11:24:55.924Z,2.15
2023-09-04T11:27:25.516Z,2.15
2023-09-04T11:29:53.617Z,1.92
2023-09-04T11:32:21.472Z,2.38
2023-09-04T11:34:51.969Z,2.47
2023-09-04T11:37:18.981Z,2.67
2023-09-04T11:40:00.699Z,2.53
2023-09-04T11:42:32.084Z,2.33
2023-09-04T11:44:59.086Z,1.92
2023-09-04T11:47:26.542Z,1.90
2023-09-04T11:49:53.880Z,2.50
2023-09-04T11:52:30.403Z,2.50
2023-09-04T11:54:58.096Z,2.05
2023-09-04T11:57:25.580Z,1.85
2023-09-04T11:59:52.530Z,2.38
2023-09-04T12:02:19.723Z,2.33
2023-09-04T12:04:47.488Z,2.10
2023-09-04T12:07:19.906Z,2.08
2023-09-04T12:09:46.894Z,1.83
2023-09-04T12:12:18.342Z,1.98
2023-09-04T12:14:46.760Z,1.98
2023-09-04T12:17:14.445Z,1.85
2023-09-04T12:19:44.932Z,1.90
2023-09-04T12:22:13.630Z,2.20
2023-09-04T12:24:41.170Z,2.00
2023-09-04T12:27:10.266Z,2.10
2023-09-04T12:29:37.459Z,1.90
2023-09-04T12:32:04.926Z,1.92
2023-09-04T12:34:32.477Z,1.77
2023-09-04T12:36:59.555Z,1.88
2023-09-04T12:39:26.730Z,1.90
2023-09-04T12:42:01.053Z,1.85
2023-09-04T12:44:27.918Z,1.52
2023-09-04T12:46:54.814Z,1.63
2023-09-04T12:49:21.762Z,1.67
2023-09-04T12:51:48.642Z,1.88
2023-09-04T12:54:15.537Z,1.48
2023-09-04T12:56:42.420Z,1.50
2023-09-04T12:59:09.310Z,1.73
2023-09-04T13:01:37.062Z,1.80
2023-09-04T13:04:04.454Z,1.52
2023-09-04T13:06:31.962Z,1.48
2023-09-04T13:08:59.604Z,1.60
2023-09-04T13:11:26.712Z,1.50
2023-09-04T13:13:54.850Z,1.40
2023-09-04T13:16:24.770Z,1.33
2023-09-04T13:18:53.052Z,1.75
2023-09-04T13:21:20.126Z,1.50
2023-09-04T13:23:47.763Z,1.35
2023-09-04T13:26:14.725Z,1.58
2023-09-04T13:28:41.691Z,1.40
2023-09-04T13:31:08.703Z,1.48
2023-09-04T13:33:38.412Z,1.45
2023-09-04T13:36:05.627Z,1.30
2023-09-04T13:38:32.634Z,1.73
2023-09-04T13:40:59.565Z,1.10
2023-09-04T13:43:26.782Z,1.40
2023-09-04T13:45:53.927Z,1.40
2023-09-04T13:48:21.072Z,1.10
2023-09-04T13:50:48.805Z,1.20
2023-09-04T13:53:15.775Z,1.48
2023-09-04T13:55:42.647Z,1.33
2023-09-04T13:58:09.522Z,1.08
2023-09-04T14:00:36.515Z,1.50
2023-09-04T14:03:03.767Z,1.33
2023-09-04T14:05:30.948Z,1.10
2023-09-04T14:07:57.866Z,1.20
2023-09-04T14:10:25.394Z,1.30
2023-09-04T14:12:52.276Z,1.60
2023-09-04T14:15:19.550Z,1.25
2023-09-04T14:17:46.557Z,1.08
2023-09-04T14:20:13.764Z,1.10
2023-09-04T14:22:40.677Z,1.35
2023-09-04T14:25:10.559Z,1.30
2023-09-04T14:27:37.644Z,1.20
2023-09-04T14:30:05.540Z,1.35
2023-09-04T14:32:33.635Z,1.23
2023-09-04T14:35:00.594Z,1.38
2023-09-04T14:37:27.674Z,1.40
2023-09-04T14:40:01.785Z,1.33
2023-09-04T14:42:29.093Z,1.23
2023-09-04T14:44:56.080Z,1.20
2023-09-04T14:47:22.995Z,1.48
2023-09-04T14:49:51.448Z,1.50
2023-09-04T14:52:18.664Z,1.20
2023-09-04T14:54:45.778Z,1.33
2023-09-04T14:57:12.673Z,1.23
2023-09-04T14:59:39.607Z,1.40
2023-09-04T15:02:07.068Z,1.50
2023-09-04T15:04:34.052Z,1.30
2023-09-04T15:07:01.179Z,1.67
2023-09-04T15:09:28.221Z,1.52
2023-09-04T15:11:55.150Z,1.48
2023-09-04T15:14:22.063Z,1.40
2023-09-04T15:16:48.931Z,1.73
2023-09-04T15:19:15.912Z,1.33
2023-09-04T15:21:44.003Z,1.70
2023-09-04T15:24:11.123Z,1.35
2023-09-04T15:26:38.053Z,1.27
2023-09-04T15:29:05.693Z,1.45
2023-09-04T15:31:35.334Z,1.30
2023-09-04T15:34:02.693Z,1.20
2023-09-04T15:36:29.676Z,1.65
2023-09-04T15:38:57.677Z,1.40
2023-09-04T15:41:25.573Z,1.40
2023-09-04T15:43:52.963Z,1.38
2023-09-04T15:46:21.115Z,1.27
2023-09-04T15:48:48.022Z,1.02
2023-09-04T15:51:15.108Z,1.20
2023-09-04T15:53:42.044Z,1.60
2023-09-04T15:56:08.989Z,1.60
2023-09-04T15:58:36.048Z,1.20
2023-09-04T16:01:04.889Z,1.08
2023-09-04T16:03:32.119Z,1.50
2023-09-04T16:05:59.243Z,1.50
2023-09-04T16:08:26.718Z,1.27
2023-09-04T16:10:53.819Z,1.20
2023-09-04T16:13:24.581Z,1.38
2023-09-04T16:15:53.675Z,1.58
2023-09-04T16:18:20.679Z,1.40
2023-09-04T16:20:48.242Z,1.60
2023-09-04T16:23:19.774Z,1.48
2023-09-04T16:25:47.253Z,1.67
2023-09-04T16:28:14.313Z,1.23
2023-09-04T16:30:42.133Z,1.10
2023-09-04T16:33:12.627Z,1.30
2023-09-04T16:35:42.349Z,1.75
2023-09-04T16:38:09.530Z,1.55
2023-09-04T16:40:43.833Z,1.52
2023-09-04T16:43:10.865Z,1.45
2023-09-04T16:45:38.364Z,1.55
2023-09-04T16:48:07.109Z,1.60
2023-09-04T16:50:34.476Z,1.60
2023-09-04T16:53:01.568Z,1.70
2023-09-04T16:55:28.445Z,1.55
2023-09-04T16:57:55.584Z,1.70
2023-09-04T17:00:22.468Z,1.52
2023-09-04T17:02:51.077Z,1.63
2023-09-04T17:05:19.386Z,1.67
2023-09-04T17:07:47.185Z,1.73
2023-09-04T17:10:14.317Z,1.42
2023-09-04T17:12:41.371Z,1.70
2023-09-04T17:15:09.223Z,1.92
2023-09-04T17:17:36.233Z,1.70
2023-09-04T17:20:03.408Z,1.83
2023-09-04T17:22:30.377Z,1.75
2023-09-04T17:24:57.193Z,1.50
2023-09-04T17:27:24.573Z,1.75
2023-09-04T17:29:54.516Z,2.00
2023-09-04T17:32:21.439Z,2.13
2023-09-04T17:34:48.312Z,1.88
2023-09-04T17:37:15.814Z,1.65
2023-09-04T17:39:42.747Z,1.65
2023-09-04T17:42:09.849Z,2.00
2023-09-04T17:44:37.433Z,2.03
2023-09-04T17:47:05.127Z,1.90
2023-09-04T17:49:33.166Z,1.60
2023-09-04T17:52:00.073Z,1.88
2023-09-04T17:54:27.029Z,1.83
2023-09-04T17:56:53.888Z,1.85
2023-09-04T17:59:20.896Z,2.20
2023-09-04T18:01:47.890Z,1.98
2023-09-04T18:04:17.480Z,2.10
2023-09-04T18:06:44.439Z,1.90
2023-09-04T18:09:11.470Z,2.10
2023-09-04T18:11:38.524Z,1.80
2023-09-04T18:14:05.671Z,1.63
2023-09-04T18:16:32.523Z,1.60
2023-09-04T18:18:59.471Z,1.60
2023-09-04T18:21:26.361Z,2.13
2023-09-04T18:23:53.246Z,1.77
2023-09-04T18:26:20.335Z,2.30
2023-09-04T18:28:47.455Z,2.25
2023-09-04T18:31:20.499Z,2.00
2023-09-04T18:33:47.986Z,1.58
2023-09-04T18:36:15.437Z,2.60
2023-09-04T18:38:46.990Z,1.83
2023-09-04T18:41:16.681Z,1.90
2023-09-04T18:43:49.115Z,1.90
2023-09-04T18:46:19.323Z,2.30
2023-09-04T18:48:47.478Z,2.05
2023-09-04T18:51:14.451Z,2.15
2023-09-04T18:53:41.529Z,2.10
2023-09-04T18:56:08.833Z,2.22
2023-09-04T18:58:35.782Z,2.03
2023-09-04T19:01:04.783Z,2.33
2023-09-04T19:03:32.208Z,1.95
2023-09-04T19:05:59.186Z,2.33
2023-09-04T19:08:26.274Z,2.22
2023-09-04T19:10:54.913Z,1.77
2023-09-04T19:13:22.393Z,2.08
2023-09-04T19:15:49.681Z,1.98
2023-09-04T19:18:17.550Z,1.85
2023-09-04T19:20:44.625Z,2.05
2023-09-04T19:23:11.636Z,1.83
2023-09-04T19:25:38.519Z,2.20
2023-09-04T19:28:06.145Z,1.80
2023-09-04T19:30:33.459Z,2.17
2023-09-04T19:33:01.121Z,2.13
2023-09-04T19:35:28.215Z,2.08
2023-09-04T19:37:55.265Z,1.90
2023-09-04T19:40:22.168Z,2.00
2023-09-04T19:42:49.072Z,2.42
2023-09-04T19:45:17.273Z,2.05
2023-09-04T19:47:44.731Z,2.10
2023-09-04T19:50:12.308Z,2.40
2023-09-04T19:52:41.878Z,2.75
2023-09-04T19:55:09.195Z,2.30
2023-09-04T19:57:37.500Z,2.50
2023-09-04T20:00:07.500Z,2.25
2023-09-04T20:02:41.821Z,2.50
2023-09-04T20:05:10.431Z,2.40
2023-09-04T20:07:38.405Z,2.60
2023-09-04T20:10:06.639Z,2.10
2023-09-04T20:12:33.567Z,2.70
2023-09-04T20:15:00.483Z,2.40
2023-09-04T20:17:27.376Z,2.60
2023-09-04T20:19:54.336Z,2.42
2023-09-04T20:22:22.693Z,2.50
2023-09-04T20:24:50.153Z,2.50
2023-09-04T20:27:17.198Z,2.50
2023-09-04T20:29:44.083Z,2.50
2023-09-04T20:32:11.178Z,2.50
2023-09-04T20:34:38.419Z,2.38
2023-09-04T20:37:05.501Z,2.42
2023-09-04T20:39:32.755Z,2.40
2023-09-04T20:42:04.003Z,2.40
2023-09-04T20:44:31.350Z,2.70
2023-09-04T20:46:58.359Z,2.47
2023-09-04T20:49:25.341Z,3.05
2023-09-04T20:51:52.226Z,2.40
2023-09-04T20:54:19.113Z,2.33
2023-09-04T20:56:45.978Z,2.90
2023-09-04T20:59:12.863Z,3.00
2023-09-04T21:01:39.833Z,2.58
2023-09-04T21:04:07.509Z,2.42
2023-09-04T21:06:35.000Z,2.35
2023-09-04T21:09:01.838Z,3.03
2023-09-04T21:11:28.700Z,2.80
2023-09-04T21:14:14.323Z,2.70
2023-09-04T21:16:59.789Z,2.67
2023-09-04T21:19:45.334Z,2.75
2023-09-04T21:22:30.559Z,2.90
2023-09-04T21:28:01.318Z,2.60
2023-09-04T21:30:46.981Z,2.80
2023-09-04T21:33:32.701Z,2.72
2023-09-04T21:36:18.286Z,2.95
2023-09-04T21:39:03.866Z,2.90
2023-09-04T21:41:49.122Z,2.38
2023-09-04T21:47:20.107Z,2.58
2023-09-04T21:50:05.701Z,2.50
2023-09-04T21:52:51.352Z,2.35
2023-09-04T21:55:36.955Z,2.38
2023-09-04T21:58:22.965Z,2.75
2023-09-04T22:01:08.422Z,2.50
2023-09-04T22:03:55.211Z,2.45
2023-09-04T22:06:42.057Z,2.10
2023-09-04T22:09:27.737Z,2.15
2023-09-04T22:12:13.056Z,2.70
2023-09-04T22:14:58.628Z,2.05
2023-09-04T22:17:44.042Z,1.90
2023-09-04T22:20:29.898Z,2.13
2023-09-04T22:23:15.652Z,2.20
2023-09-04T22:26:01.288Z,2.45
2023-09-04T22:28:46.602Z,2.38
2023-09-04T22:34:17.700Z,2.33
2023-09-04T22:37:03.310Z,2.05
2023-09-04T22:39:48.753Z,2.42
2023-09-04T22:42:34.414Z,2.03
2023-09-04T22:45:19.945Z,2.15
2023-09-04T22:48:05.620Z,2.50
2023-09-04T22:50:51.576Z,2.25
2023-09-04T22:53:37.211Z,2.30
2023-09-04T22:56:22.955Z,2.20
2023-09-04T22:59:12.849Z,2.30
2023-09-04T23:01:58.286Z,1.88
2023-09-04T23:04:43.605Z,2.30
2023-09-04T23:10:14.283Z,1.90
2023-09-04T23:12:59.904Z,2.20
2023-09-04T23:15:45.456Z,2.17
2023-09-04T23:18:31.045Z,2.10
2023-09-04T23:21:06.786Z,2.42
2023-09-04T23:23:36.225Z,2.20
2023-09-04T23:26:07.068Z,2.60
2023-09-04T23:28:34.797Z,2.40
2023-09-04T23:31:01.835Z,2.60
2023-09-04T23:33:39.161Z,2.63
2023-09-04T23:36:46.143Z,2.40
2023-09-04T23:39:22.103Z,2.38
2023-09-04T23:42:07.458Z,2.20
2023-09-04T23:44:53.077Z,2.50
2023-09-04T23:47:22.288Z,2.50
2023-09-04T23:49:49.368Z,2.47
2023-09-04T23:52:16.254Z,2.20
2023-09-04T23:54:43.145Z,2.80
2023-09-04T23:57:11.161Z,2.90
2023-09-04T23:59:39.036Z,2.55
